createdAt,value
2023-03-06T00:02:00.092Z,592
2023-03-06T00:02:59.845Z,707
2023-03-06T00:03:59.964Z,629
2023-03-06T00:04:59.841Z,707
2023-03-06T00:07:00.093Z,629
2023-03-06T00:09:43.296Z,400
2023-03-06T00:10:43.310Z,400
2023-03-06T00:11:43.291Z,400
2023-03-06T00:13:43.587Z,400
2023-03-06T00:14:43.301Z,400
2023-03-06T00:15:43.329Z,400
2023-03-06T00:16:43.337Z,400
2023-03-06T00:18:43.582Z,400
2023-03-06T00:19:43.391Z,400
2023-03-06T00:20:43.418Z,400
2023-03-06T00:21:43.417Z,400
2023-03-06T00:23:43.588Z,400
2023-03-06T00:24:43.331Z,400
2023-03-06T00:25:43.452Z,400
2023-03-06T00:26:43.296Z,400
2023-03-06T00:28:43.618Z,400
2023-03-06T00:29:43.421Z,438
2023-03-06T00:30:43.436Z,438
2023-03-06T00:31:43.342Z,438
2023-03-06T00:33:43.648Z,438
2023-03-06T00:34:43.444Z,438
2023-03-06T00:35:43.465Z,438
2023-03-06T00:36:43.295Z,438
2023-03-06T00:38:43.624Z,438
2023-03-06T00:39:43.445Z,445
2023-03-06T00:40:43.324Z,445
2023-03-06T00:41:45.421Z,445
2023-03-06T00:43:43.615Z,445
2023-03-06T00:44:43.329Z,480
2023-03-06T00:45:43.322Z,480
2023-03-06T00:46:43.329Z,480
2023-03-06T00:48:43.603Z,480
2023-03-06T00:49:43.308Z,473
2023-03-06T00:50:43.322Z,473
2023-03-06T00:51:43.415Z,473
2023-03-06T00:53:43.599Z,473
2023-03-06T00:54:43.424Z,549
2023-03-06T00:55:43.424Z,549
2023-03-06T00:56:43.311Z,549
2023-03-06T00:58:43.593Z,549
2023-03-06T00:59:43.341Z,501
2023-03-06T01:00:43.358Z,501
2023-03-06T01:01:43.457Z,501
2023-03-06T01:03:43.626Z,501
2023-03-06T01:04:43.339Z,575
2023-03-06T01:05:43.432Z,575
2023-03-06T01:06:43.439Z,575
2023-03-06T01:08:43.585Z,575
2023-03-06T01:09:43.300Z,603
2023-03-06T01:10:43.318Z,603
2023-03-06T01:11:43.311Z,603
2023-03-06T01:13:43.605Z,603
2023-03-06T01:14:43.329Z,603
2023-03-06T01:15:43.397Z,603
2023-03-06T01:16:43.448Z,603
2023-03-06T01:18:43.624Z,603
2023-03-06T01:19:43.307Z,575
2023-03-06T01:20:43.313Z,575
2023-03-06T01:21:43.305Z,575
2023-03-06T01:23:43.602Z,575
2023-03-06T01:24:43.338Z,537
2023-03-06T01:25:43.351Z,537
2023-03-06T01:26:43.359Z,537
2023-03-06T01:28:43.639Z,537
2023-03-06T01:29:43.304Z,445
2023-03-06T01:30:43.322Z,445
2023-03-06T01:31:43.371Z,445
2023-03-06T01:33:43.624Z,445
2023-03-06T01:34:43.310Z,503
2023-03-06T01:35:43.374Z,503
2023-03-06T01:36:43.445Z,503
2023-03-06T01:38:43.665Z,503
2023-03-06T01:39:43.343Z,452
2023-03-06T01:40:43.347Z,452
2023-03-06T01:41:43.322Z,452
2023-03-06T01:43:43.632Z,452
2023-03-06T01:44:43.339Z,421
2023-03-06T01:45:43.450Z,421
2023-03-06T01:46:43.339Z,421
2023-03-06T01:48:43.643Z,421
2023-03-06T01:49:43.338Z,400
2023-03-06T01:50:43.308Z,400
2023-03-06T01:51:43.338Z,400
2023-03-06T01:53:43.622Z,400
2023-03-06T01:54:43.357Z,438
2023-03-06T01:55:43.316Z,438
2023-03-06T01:56:43.345Z,438
2023-03-06T01:58:43.628Z,438
2023-03-06T01:59:43.347Z,505
2023-03-06T02:00:43.349Z,505
2023-03-06T02:01:43.317Z,505
2023-03-06T02:03:43.636Z,505
2023-03-06T02:04:43.326Z,454
2023-03-06T02:05:43.340Z,454
2023-03-06T02:06:43.469Z,454
2023-03-06T02:08:43.647Z,454
2023-03-06T02:09:43.361Z,470
2023-03-06T02:10:43.349Z,470
2023-03-06T02:11:43.510Z,470
2023-03-06T02:13:43.647Z,470
2023-03-06T02:14:43.341Z,461
2023-03-06T02:15:43.351Z,461
2023-03-06T02:16:43.519Z,461
2023-03-06T02:18:43.635Z,461
2023-03-06T02:19:43.496Z,548
2023-03-06T02:20:43.432Z,548
2023-03-06T02:21:43.495Z,548
2023-03-06T02:23:43.623Z,548
2023-03-06T02:24:43.362Z,540
2023-03-06T02:25:43.433Z,540
2023-03-06T02:26:43.475Z,540
2023-03-06T02:28:43.633Z,540
2023-03-06T02:29:43.509Z,497
2023-03-06T02:30:43.528Z,497
2023-03-06T02:31:43.460Z,497
2023-03-06T02:33:43.639Z,497
2023-03-06T02:34:43.452Z,454
2023-03-06T02:35:43.550Z,454
2023-03-06T02:36:43.467Z,454
2023-03-06T02:38:43.656Z,454
2023-03-06T02:39:43.501Z,438
2023-03-06T02:40:43.465Z,438
2023-03-06T02:41:43.550Z,438
2023-03-06T02:43:43.627Z,438
2023-03-06T02:44:43.467Z,400
2023-03-06T02:45:43.484Z,400
2023-03-06T02:46:43.466Z,400
2023-03-06T02:48:43.667Z,400
2023-03-06T02:49:43.478Z,400
2023-03-06T02:50:43.466Z,400
2023-03-06T02:51:43.472Z,400
2023-03-06T02:53:43.661Z,400
2023-03-06T02:54:43.468Z,407
2023-03-06T02:55:43.486Z,407
2023-03-06T02:56:43.464Z,407
2023-03-06T02:58:43.636Z,407
2023-03-06T02:59:43.470Z,407
2023-03-06T03:00:43.472Z,407
2023-03-06T03:01:43.513Z,407
2023-03-06T03:03:43.655Z,407
2023-03-06T03:04:43.509Z,491
2023-03-06T03:05:43.476Z,491
2023-03-06T03:06:43.477Z,491
2023-03-06T03:08:43.632Z,491
2023-03-06T03:09:43.348Z,446
2023-03-06T03:10:43.416Z,446
2023-03-06T03:11:43.348Z,446
2023-03-06T03:13:43.680Z,446
2023-03-06T03:14:43.369Z,400
2023-03-06T03:15:43.355Z,400
2023-03-06T03:16:43.362Z,400
2023-03-06T03:18:43.663Z,400
2023-03-06T03:19:43.460Z,400
2023-03-06T03:20:43.483Z,400
2023-03-06T03:21:43.465Z,400
2023-03-06T03:23:43.653Z,400
2023-03-06T03:24:43.445Z,454
2023-03-06T03:25:43.463Z,454
2023-03-06T03:26:43.370Z,454
2023-03-06T03:28:43.675Z,454
2023-03-06T03:29:43.485Z,407
2023-03-06T03:30:43.472Z,407
2023-03-06T03:31:43.476Z,407
2023-03-06T03:33:43.688Z,407
2023-03-06T03:34:43.370Z,400
2023-03-06T03:35:43.523Z,400
2023-03-06T03:36:43.366Z,400
2023-03-06T03:38:43.712Z,400
2023-03-06T03:39:43.463Z,400
2023-03-06T03:40:43.378Z,400
2023-03-06T03:41:43.472Z,400
2023-03-06T03:43:43.652Z,400
2023-03-06T03:44:43.507Z,414
2023-03-06T03:45:43.477Z,414
2023-03-06T03:46:43.409Z,414
2023-03-06T03:48:43.680Z,414
2023-03-06T03:49:43.362Z,400
2023-03-06T03:50:43.478Z,400
2023-03-06T03:51:43.409Z,400
2023-03-06T03:53:43.682Z,400
2023-03-06T03:54:43.389Z,417
2023-03-06T03:55:43.390Z,417
2023-03-06T03:56:43.435Z,417
2023-03-06T03:58:43.657Z,417
2023-03-06T03:59:43.392Z,400
2023-03-06T04:00:43.402Z,400
2023-03-06T04:01:43.420Z,400
2023-03-06T04:03:43.685Z,400
2023-03-06T04:04:43.438Z,400
2023-03-06T04:05:43.500Z,400
2023-03-06T04:06:43.400Z,400
2023-03-06T04:08:43.681Z,400
2023-03-06T04:09:43.403Z,506
2023-03-06T04:10:43.402Z,506
2023-03-06T04:11:43.481Z,506
2023-03-06T04:13:43.695Z,506
2023-03-06T04:14:43.494Z,424
2023-03-06T04:15:43.499Z,424
2023-03-06T04:16:43.493Z,424
2023-03-06T04:18:43.681Z,424
2023-03-06T04:19:43.494Z,400
2023-03-06T04:20:43.520Z,400
2023-03-06T04:21:43.492Z,400
2023-03-06T04:23:43.702Z,400
2023-03-06T04:24:43.504Z,400
2023-03-06T04:25:43.517Z,400
2023-03-06T04:26:43.489Z,400
2023-03-06T04:28:43.712Z,400
2023-03-06T04:29:43.499Z,414
2023-03-06T04:30:43.504Z,414
2023-03-06T04:31:43.543Z,414
2023-03-06T04:33:43.712Z,414
2023-03-06T04:34:43.527Z,441
2023-03-06T04:35:43.562Z,441
2023-03-06T04:36:43.512Z,441
2023-03-06T04:38:43.719Z,441
2023-03-06T04:39:43.480Z,473
2023-03-06T04:40:44.924Z,473
2023-03-06T04:41:43.483Z,473
2023-03-06T04:43:43.668Z,473
2023-03-06T04:44:43.497Z,407
2023-03-06T04:45:43.502Z,407
2023-03-06T04:46:43.507Z,407
2023-03-06T04:48:43.631Z,407
2023-03-06T04:49:43.508Z,463
2023-03-06T04:50:43.498Z,463
2023-03-06T04:51:43.395Z,463
2023-03-06T04:53:43.734Z,463
2023-03-06T04:54:43.490Z,433
2023-03-06T04:55:43.397Z,433
2023-03-06T04:56:43.484Z,433
2023-03-06T04:58:43.687Z,433
2023-03-06T04:59:43.397Z,407
2023-03-06T05:00:43.400Z,407
2023-03-06T05:01:43.402Z,407
2023-03-06T05:03:43.675Z,407
2023-03-06T05:04:43.386Z,447
2023-03-06T05:05:43.395Z,447
2023-03-06T05:06:43.384Z,447
2023-03-06T05:08:43.680Z,447
2023-03-06T05:09:43.395Z,441
2023-03-06T05:10:43.397Z,441
2023-03-06T05:11:43.407Z,441
2023-03-06T05:13:43.690Z,441
2023-03-06T05:14:43.405Z,481
2023-03-06T05:15:43.374Z,481
2023-03-06T05:16:43.665Z,481
2023-03-06T05:18:43.711Z,481
2023-03-06T05:19:43.417Z,473
2023-03-06T05:20:43.404Z,473
2023-03-06T05:21:43.405Z,473
2023-03-06T05:23:43.720Z,473
2023-03-06T05:24:43.395Z,519
2023-03-06T05:25:43.404Z,519
2023-03-06T05:26:43.393Z,519
2023-03-06T05:28:43.850Z,519
2023-03-06T05:29:43.409Z,473
2023-03-06T05:30:43.386Z,473
2023-03-06T05:31:43.516Z,473
2023-03-06T05:33:43.749Z,473
2023-03-06T05:34:43.385Z,463
2023-03-06T05:35:43.413Z,463
2023-03-06T05:36:43.399Z,463
2023-03-06T05:38:43.682Z,463
2023-03-06T05:39:43.406Z,567
2023-03-06T05:40:43.392Z,567
2023-03-06T05:41:43.416Z,567
2023-03-06T05:43:43.680Z,567
2023-03-06T05:44:43.399Z,447
2023-03-06T05:45:43.436Z,447
2023-03-06T05:46:43.405Z,447
2023-03-06T05:48:44.814Z,447
2023-03-06T05:49:43.427Z,488
2023-03-06T05:50:43.409Z,488
2023-03-06T05:51:43.420Z,488
2023-03-06T05:53:43.727Z,488
2023-03-06T05:54:43.401Z,497
2023-03-06T05:55:43.407Z,497
2023-03-06T05:56:43.396Z,497
2023-03-06T05:58:43.694Z,497
2023-03-06T05:59:43.407Z,505
2023-03-06T06:00:43.401Z,505
2023-03-06T06:01:43.405Z,505
2023-03-06T06:03:43.800Z,505
2023-03-06T06:04:43.437Z,505
2023-03-06T06:05:43.421Z,505
2023-03-06T06:06:43.431Z,505
2023-03-06T06:08:43.706Z,505
2023-03-06T06:09:43.543Z,463
2023-03-06T06:10:43.433Z,463
2023-03-06T06:11:43.428Z,463
2023-03-06T06:13:43.722Z,463
2023-03-06T06:14:43.575Z,455
2023-03-06T06:15:43.433Z,455
2023-03-06T06:16:43.404Z,455
2023-03-06T06:18:43.712Z,455
2023-03-06T06:19:43.534Z,422
2023-03-06T06:20:43.407Z,422
2023-03-06T06:21:43.428Z,422
2023-03-06T06:23:43.700Z,422
2023-03-06T06:24:43.531Z,400
2023-03-06T06:25:43.537Z,400
2023-03-06T06:26:43.530Z,400
2023-03-06T06:28:43.703Z,400
2023-03-06T06:29:43.407Z,487
2023-03-06T06:30:43.438Z,487
2023-03-06T06:31:43.418Z,487
2023-03-06T06:33:43.713Z,487
2023-03-06T06:34:43.416Z,524
2023-03-06T06:35:43.551Z,524
2023-03-06T06:36:43.443Z,524
2023-03-06T06:38:43.706Z,524
2023-03-06T06:39:43.486Z,524
2023-03-06T06:40:43.523Z,524
2023-03-06T06:41:57.217Z,524
2023-03-06T06:43:43.705Z,524
2023-03-06T06:44:43.422Z,451
2023-03-06T06:45:43.451Z,451
2023-03-06T06:48:43.739Z,451
2023-03-06T06:49:43.582Z,444
2023-03-06T06:50:43.449Z,444
2023-03-06T06:51:43.432Z,444
2023-03-06T06:53:43.696Z,444
2023-03-06T06:54:43.418Z,466
2023-03-06T06:55:43.458Z,466
2023-03-06T06:56:43.451Z,466
2023-03-06T06:58:43.710Z,466
2023-03-06T06:59:43.602Z,466
2023-03-06T07:00:43.472Z,466
2023-03-06T07:01:43.559Z,466
2023-03-06T07:03:43.765Z,466
2023-03-06T07:04:56.435Z,466
2023-03-06T07:05:43.463Z,466
2023-03-06T07:06:43.436Z,466
2023-03-06T07:08:43.723Z,466
2023-03-06T07:09:43.439Z,515
2023-03-06T07:10:43.535Z,515
2023-03-06T07:11:43.447Z,515
2023-03-06T07:13:43.710Z,515
2023-03-06T07:14:43.533Z,495
2023-03-06T07:15:43.564Z,495
2023-03-06T07:16:43.537Z,495
2023-03-06T07:18:43.718Z,495
2023-03-06T07:19:43.548Z,425
2023-03-06T07:20:43.582Z,425
2023-03-06T07:21:43.533Z,425
2023-03-06T07:23:43.754Z,425
2023-03-06T07:24:43.556Z,495
2023-03-06T07:25:43.446Z,495
2023-03-06T07:26:43.455Z,495
2023-03-06T07:28:52.244Z,495
2023-03-06T07:29:43.448Z,574
2023-03-06T07:30:43.432Z,574
2023-03-06T07:31:43.527Z,574
2023-03-06T07:33:43.718Z,574
2023-03-06T07:34:43.454Z,611
2023-03-06T07:35:43.459Z,611
2023-03-06T07:36:43.558Z,611
2023-03-06T07:38:43.752Z,611
2023-03-06T07:39:43.432Z,503
2023-03-06T07:40:43.468Z,503
2023-03-06T07:41:43.593Z,503
2023-03-06T07:43:43.724Z,503
2023-03-06T07:44:43.480Z,486
2023-03-06T07:45:43.475Z,486
2023-03-06T07:46:43.564Z,486
2023-03-06T07:48:43.728Z,486
2023-03-06T07:49:43.552Z,452
2023-03-06T07:50:43.457Z,452
2023-03-06T07:51:43.465Z,452
2023-03-06T07:53:43.740Z,452
2023-03-06T07:54:43.476Z,400
2023-03-06T07:55:43.443Z,400
2023-03-06T07:56:43.445Z,400
2023-03-06T07:58:43.747Z,400
2023-03-06T07:59:43.477Z,400
2023-03-06T08:00:43.456Z,400
2023-03-06T08:01:43.443Z,400
2023-03-06T08:03:43.779Z,400
2023-03-06T08:04:43.482Z,400
2023-03-06T08:05:43.506Z,400
2023-03-06T08:06:43.479Z,400
2023-03-06T08:08:43.774Z,400
2023-03-06T08:09:43.479Z,400
2023-03-06T08:10:43.483Z,400
2023-03-06T08:11:43.495Z,400
2023-03-06T08:13:43.754Z,400
2023-03-06T08:14:43.580Z,400
2023-03-06T08:15:43.473Z,400
2023-03-06T08:16:43.486Z,400
2023-03-06T08:18:45.815Z,400
2023-03-06T08:19:43.472Z,400
2023-03-06T08:20:43.473Z,400
2023-03-06T08:21:43.473Z,400
2023-03-06T08:23:43.793Z,400
2023-03-06T08:24:43.462Z,400
2023-03-06T08:25:43.579Z,400
2023-03-06T08:26:43.484Z,400
2023-03-06T08:28:43.788Z,400
2023-03-06T08:29:43.454Z,456
2023-03-06T08:30:43.482Z,456
2023-03-06T08:31:43.527Z,456
2023-03-06T08:33:43.792Z,456
2023-03-06T08:34:43.491Z,423
2023-03-06T08:35:43.471Z,423
2023-03-06T08:36:43.462Z,423
2023-03-06T08:38:43.779Z,423
2023-03-06T08:39:43.559Z,423
2023-03-06T08:40:43.487Z,423
2023-03-06T08:41:43.573Z,423
2023-03-06T08:43:43.749Z,423
2023-03-06T08:44:43.513Z,401
2023-03-06T08:45:43.515Z,400
2023-03-06T08:46:43.502Z,400
2023-03-06T08:48:43.771Z,400
2023-03-06T08:49:43.470Z,400
2023-03-06T08:50:43.586Z,400
2023-03-06T08:51:43.456Z,400
2023-03-06T08:53:44.325Z,400
2023-03-06T08:54:43.502Z,527
2023-03-06T08:55:43.501Z,527
2023-03-06T08:56:43.479Z,527
2023-03-06T08:58:43.782Z,527
2023-03-06T08:59:43.491Z,481
2023-03-06T09:00:43.534Z,481
2023-03-06T09:01:43.549Z,481
2023-03-06T09:03:43.772Z,481
2023-03-06T09:04:43.478Z,428
2023-03-06T09:05:43.515Z,428
2023-03-06T09:06:43.479Z,428
2023-03-06T09:08:43.773Z,428
2023-03-06T09:09:43.483Z,472
2023-03-06T09:10:43.574Z,472
2023-03-06T09:11:43.494Z,472
2023-03-06T09:13:43.780Z,472
2023-03-06T09:14:43.469Z,420
2023-03-06T09:15:43.465Z,420
2023-03-06T09:16:43.625Z,420
2023-03-06T09:18:43.766Z,420
2023-03-06T09:19:43.608Z,446
2023-03-06T09:20:43.491Z,446
2023-03-06T09:21:43.489Z,446
2023-03-06T09:23:43.819Z,446
2023-03-06T09:24:43.502Z,409
2023-03-06T09:25:43.507Z,409
2023-03-06T09:26:46.394Z,409
2023-03-06T09:28:43.817Z,409
2023-03-06T09:29:43.519Z,418
2023-03-06T09:30:43.534Z,418
2023-03-06T09:31:43.520Z,418
2023-03-06T09:33:43.776Z,418
2023-03-06T09:34:43.516Z,400
2023-03-06T09:35:43.548Z,400
2023-03-06T09:36:55.789Z,400
2023-03-06T09:38:43.767Z,400
2023-03-06T09:39:43.607Z,400
2023-03-06T09:40:43.500Z,400
2023-03-06T09:41:43.524Z,400
2023-03-06T09:42:43.483Z,400
2023-03-06T09:43:43.777Z,400
2023-03-06T09:44:43.490Z,400
2023-03-06T09:45:43.563Z,400
2023-03-06T09:46:43.522Z,400
2023-03-06T09:47:43.508Z,400
2023-03-06T09:48:43.775Z,400
2023-03-06T09:49:43.477Z,400
2023-03-06T09:50:43.515Z,400
2023-03-06T09:51:43.519Z,400
2023-03-06T09:52:43.538Z,400
2023-03-06T09:53:43.779Z,400
2023-03-06T09:54:43.527Z,553
2023-03-06T09:55:43.515Z,553
2023-03-06T09:56:43.523Z,553
2023-03-06T09:58:43.783Z,553
2023-03-06T09:59:43.516Z,433
2023-03-06T10:00:43.505Z,433
2023-03-06T10:01:43.516Z,433
2023-03-06T10:02:43.599Z,433
2023-03-06T10:03:43.803Z,433
2023-03-06T10:04:43.540Z,679
2023-03-06T10:05:43.488Z,679
2023-03-06T10:06:43.507Z,679
2023-03-06T10:07:43.535Z,679
2023-03-06T10:08:43.806Z,679
2023-03-06T10:09:43.559Z,580
2023-03-06T10:10:43.540Z,580
2023-03-06T10:11:43.711Z,580
2023-03-06T10:12:43.518Z,580
2023-03-06T10:13:43.815Z,580
2023-03-06T10:14:43.489Z,533
2023-03-06T10:15:43.653Z,533
2023-03-06T10:16:43.532Z,533
2023-03-06T10:18:43.793Z,533
2023-03-06T10:19:43.507Z,580
2023-03-06T10:20:43.547Z,580
2023-03-06T10:21:43.644Z,580
2023-03-06T10:22:44.790Z,580
2023-03-06T10:23:43.800Z,580
2023-03-06T10:24:43.525Z,737
2023-03-06T10:25:43.614Z,737
2023-03-06T10:26:43.573Z,737
2023-03-06T10:27:43.536Z,737
2023-03-06T10:28:43.792Z,737
2023-03-06T10:29:47.502Z,517
2023-03-06T10:30:43.535Z,517
2023-03-06T10:31:43.540Z,517
2023-03-06T10:32:48.544Z,517
2023-03-06T10:33:43.792Z,517
2023-03-06T10:34:43.527Z,638
2023-03-06T10:35:43.555Z,638
2023-03-06T10:36:43.516Z,638
2023-03-06T10:37:43.515Z,638
2023-03-06T10:38:43.818Z,638
2023-03-06T10:39:43.612Z,626
2023-03-06T10:40:43.548Z,626
2023-03-06T10:41:44.696Z,626
2023-03-06T10:42:43.643Z,626
2023-03-06T10:43:43.826Z,626
2023-03-06T10:44:43.613Z,665
2023-03-06T10:45:48.816Z,665
2023-03-06T10:46:43.778Z,665
2023-03-06T10:47:43.515Z,665
2023-03-06T10:48:43.808Z,665
2023-03-06T10:49:43.527Z,485
2023-03-06T10:50:43.633Z,485
2023-03-06T10:51:43.638Z,485
2023-03-06T10:52:43.536Z,485
2023-03-06T10:53:43.823Z,485
2023-03-06T10:54:43.515Z,567
2023-03-06T10:55:43.533Z,567
2023-03-06T10:56:43.687Z,567
2023-03-06T10:58:43.805Z,567
2023-03-06T10:59:43.536Z,770
2023-03-06T11:00:43.720Z,770
2023-03-06T11:01:43.662Z,770
2023-03-06T11:02:43.647Z,770
2023-03-06T11:03:43.836Z,770
2023-03-06T11:04:43.582Z,665
2023-03-06T11:05:43.548Z,665
2023-03-06T11:06:43.516Z,665
2023-03-06T11:08:43.810Z,665
2023-03-06T11:09:43.530Z,665
2023-03-06T11:10:43.513Z,665
2023-03-06T11:11:43.552Z,665
2023-03-06T11:12:43.634Z,665
2023-03-06T11:13:43.799Z,665
2023-03-06T11:14:43.638Z,567
2023-03-06T11:15:43.644Z,567
2023-03-06T11:16:43.639Z,567
2023-03-06T11:17:43.630Z,567
2023-03-06T11:18:43.836Z,567
2023-03-06T11:19:43.635Z,605
2023-03-06T11:20:51.324Z,605
2023-03-06T11:21:43.636Z,605
2023-03-06T11:22:43.652Z,605
2023-03-06T11:23:43.893Z,605
2023-03-06T11:24:43.561Z,650
2023-03-06T11:25:43.672Z,650
2023-03-06T11:26:43.653Z,650
2023-03-06T11:27:43.524Z,650
2023-03-06T11:28:43.814Z,650
2023-03-06T11:29:43.520Z,657
2023-03-06T11:30:43.515Z,657
2023-03-06T11:31:43.716Z,657
2023-03-06T11:32:43.650Z,657
2023-03-06T11:33:43.807Z,657
2023-03-06T11:34:43.666Z,618
2023-03-06T11:35:43.645Z,618
2023-03-06T11:36:43.675Z,618
2023-03-06T11:37:43.548Z,618
2023-03-06T11:38:43.771Z,618
2023-03-06T11:39:43.678Z,617
2023-03-06T11:40:43.547Z,617
2023-03-06T11:41:43.561Z,617
2023-03-06T11:42:43.520Z,617
2023-03-06T11:43:43.855Z,617
2023-03-06T11:44:43.529Z,688
2023-03-06T11:45:43.548Z,688
2023-03-06T11:46:43.717Z,688
2023-03-06T11:48:43.848Z,688
2023-03-06T11:49:43.527Z,496
2023-03-06T11:50:43.558Z,496
2023-03-06T11:51:43.595Z,496
2023-03-06T11:52:43.533Z,496
2023-03-06T11:53:43.826Z,496
2023-03-06T11:54:43.534Z,536
2023-03-06T11:55:43.556Z,536
2023-03-06T11:56:43.548Z,536
2023-03-06T11:58:43.847Z,536
2023-03-06T11:59:43.563Z,646
2023-03-06T12:00:43.559Z,646
2023-03-06T12:01:43.546Z,646
2023-03-06T12:03:43.834Z,646
2023-03-06T12:04:43.563Z,633
2023-03-06T12:05:43.615Z,633
2023-03-06T12:06:43.558Z,633
2023-03-06T12:08:43.875Z,633
2023-03-06T12:09:43.559Z,633
2023-03-06T12:10:44.303Z,633
2023-03-06T12:11:43.566Z,633
2023-03-06T12:13:43.828Z,633
2023-03-06T12:14:43.589Z,646
2023-03-06T12:15:43.683Z,652
2023-03-06T12:16:43.632Z,646
2023-03-06T12:18:43.862Z,679
2023-03-06T12:19:43.579Z,517
2023-03-06T12:20:43.580Z,517
2023-03-06T12:21:43.582Z,517
2023-03-06T12:23:43.896Z,517
2023-03-06T12:24:43.573Z,666
2023-03-06T12:25:43.594Z,666
2023-03-06T12:26:43.591Z,666
2023-03-06T12:28:45.453Z,666
2023-03-06T12:29:43.673Z,633
2023-03-06T12:30:43.648Z,633
2023-03-06T12:31:43.573Z,633
2023-03-06T12:33:43.852Z,633
2023-03-06T12:34:43.563Z,813
2023-03-06T12:35:43.624Z,813
2023-03-06T12:36:43.586Z,813
2023-03-06T12:38:43.872Z,874
2023-03-06T12:39:43.586Z,697
2023-03-06T12:40:43.589Z,697
2023-03-06T12:41:43.592Z,697
2023-03-06T12:43:43.881Z,697
2023-03-06T12:44:43.589Z,759
2023-03-06T12:45:43.623Z,759
2023-03-06T12:46:43.638Z,759
2023-03-06T12:48:43.938Z,759
2023-03-06T12:49:43.734Z,560
2023-03-06T12:50:43.634Z,560
2023-03-06T12:51:43.558Z,560
2023-03-06T12:53:43.846Z,560
2023-03-06T12:54:43.592Z,527
2023-03-06T12:55:43.559Z,491
2023-03-06T12:56:43.595Z,491
2023-03-06T12:58:43.891Z,491
2023-03-06T12:59:43.590Z,517
2023-03-06T13:00:43.789Z,586
2023-03-06T13:01:43.800Z,551
2023-03-06T13:03:43.862Z,566
2023-03-06T13:04:43.688Z,586
2023-03-06T13:05:43.596Z,682
2023-03-06T13:06:50.021Z,665
2023-03-06T13:08:44.316Z,447
2023-03-06T13:09:43.568Z,594
2023-03-06T13:10:43.599Z,640
2023-03-06T13:11:43.569Z,483
2023-03-06T13:13:43.858Z,631
2023-03-06T13:14:52.551Z,600
2023-03-06T13:15:43.610Z,925
2023-03-06T13:16:43.748Z,640
2023-03-06T13:18:43.897Z,556
2023-03-06T13:19:43.712Z,810
2023-03-06T13:20:43.644Z,536
2023-03-06T13:21:43.593Z,719
2023-03-06T13:23:43.876Z,740
2023-03-06T13:24:43.599Z,506
2023-03-06T13:25:43.602Z,702
2023-03-06T13:26:43.605Z,523
2023-03-06T13:28:43.890Z,452
2023-03-06T13:29:43.607Z,780
2023-03-06T13:30:43.629Z,602
2023-03-06T13:31:43.667Z,602
2023-03-06T13:33:43.868Z,846
2023-03-06T13:34:43.603Z,660
2023-03-06T13:35:43.624Z,930
2023-03-06T13:36:43.595Z,665
2023-03-06T13:38:43.963Z,836
2023-03-06T13:39:43.606Z,561
2023-03-06T13:40:43.673Z,813
2023-03-06T13:41:43.670Z,592
2023-03-06T13:43:45.397Z,765
2023-03-06T13:44:43.597Z,531
2023-03-06T13:45:43.709Z,614
2023-03-06T13:46:43.613Z,570
2023-03-06T13:48:45.657Z,730
2023-03-06T13:49:43.632Z,444
2023-03-06T13:50:43.618Z,556
2023-03-06T13:51:43.623Z,413
2023-03-06T13:53:43.921Z,463
2023-03-06T13:54:43.683Z,646
2023-03-06T13:55:43.629Z,659
2023-03-06T13:56:43.664Z,602
2023-03-06T13:58:43.929Z,602
2023-03-06T13:59:43.655Z,697
2023-03-06T14:00:43.598Z,740
2023-03-06T14:01:43.652Z,697
2023-03-06T14:03:43.876Z,712
2023-03-06T14:04:43.728Z,683
2023-03-06T14:05:43.621Z,742
2023-03-06T14:06:43.626Z,787
2023-03-06T14:08:43.876Z,683
2023-03-06T14:09:43.673Z,627
2023-03-06T14:10:43.613Z,565
2023-03-06T14:11:43.633Z,620
2023-03-06T14:13:47.287Z,565
2023-03-06T14:14:43.654Z,629
2023-03-06T14:15:43.656Z,580
2023-03-06T14:16:49.649Z,627
2023-03-06T14:18:43.942Z,650
2023-03-06T14:19:43.623Z,560
2023-03-06T14:20:43.575Z,560
2023-03-06T14:21:43.642Z,759
2023-03-06T14:23:43.965Z,605
2023-03-06T14:24:43.714Z,531
2023-03-06T14:25:43.606Z,596
2023-03-06T14:26:43.635Z,536
2023-03-06T14:28:43.921Z,589
2023-03-06T14:29:43.592Z,549
2023-03-06T14:30:43.596Z,549
2023-03-06T14:31:43.708Z,675
2023-03-06T14:33:43.928Z,569
2023-03-06T14:34:43.721Z,536
2023-03-06T14:35:43.759Z,536
2023-03-06T14:36:43.647Z,536
2023-03-06T14:38:43.915Z,536
2023-03-06T14:39:43.696Z,575
2023-03-06T14:40:43.626Z,575
2023-03-06T14:41:43.606Z,575
2023-03-06T14:43:43.905Z,575
2023-03-06T14:44:43.615Z,520
2023-03-06T14:45:43.634Z,520
2023-03-06T14:46:43.654Z,520
2023-03-06T14:48:43.935Z,520
2023-03-06T14:49:43.602Z,539
2023-03-06T14:50:43.623Z,539
2023-03-06T14:51:43.632Z,539
2023-03-06T14:53:43.914Z,539
2023-03-06T14:54:43.638Z,501
2023-03-06T14:55:43.656Z,501
2023-03-06T14:56:43.643Z,501
2023-03-06T14:58:43.943Z,501
2023-03-06T14:59:43.659Z,473
2023-03-06T15:00:43.695Z,473
2023-03-06T15:01:43.695Z,473
2023-03-06T15:03:43.933Z,473
2023-03-06T15:04:43.674Z,473
2023-03-06T15:05:43.650Z,473
2023-03-06T15:06:43.710Z,473
2023-03-06T15:08:43.904Z,473
2023-03-06T15:09:43.676Z,433
2023-03-06T15:10:43.648Z,433
2023-03-06T15:11:43.607Z,433
2023-03-06T15:13:43.910Z,433
2023-03-06T15:14:43.656Z,443
2023-03-06T15:15:43.624Z,443
2023-03-06T15:16:43.660Z,443
2023-03-06T15:18:43.915Z,443
2023-03-06T15:19:43.763Z,452
2023-03-06T15:20:43.740Z,452
2023-03-06T15:21:43.743Z,452
2023-03-06T15:23:43.930Z,452
2023-03-06T15:24:43.736Z,443
2023-03-06T15:25:43.737Z,443
2023-03-06T15:26:43.648Z,443
2023-03-06T15:28:43.909Z,443
2023-03-06T15:29:43.675Z,496
2023-03-06T15:30:43.666Z,496
2023-03-06T15:31:43.812Z,496
2023-03-06T15:33:43.918Z,496
2023-03-06T15:34:43.627Z,496
2023-03-06T15:35:43.683Z,496
2023-03-06T15:36:43.641Z,496
2023-03-06T15:38:43.925Z,496
2023-03-06T15:39:43.670Z,506
2023-03-06T15:40:43.670Z,506
2023-03-06T15:41:43.650Z,506
2023-03-06T15:43:43.928Z,506
2023-03-06T15:44:43.665Z,422
2023-03-06T15:45:43.669Z,422
2023-03-06T15:46:43.657Z,422
2023-03-06T15:48:43.924Z,422
2023-03-06T15:49:43.626Z,422
2023-03-06T15:50:43.685Z,422
2023-03-06T15:51:43.665Z,422
2023-03-06T15:53:43.925Z,422
2023-03-06T15:54:43.663Z,422
2023-03-06T15:55:43.663Z,422
2023-03-06T15:56:43.789Z,422
2023-03-06T15:58:43.922Z,422
2023-03-06T15:59:43.757Z,400
2023-03-06T16:00:43.716Z,400
2023-03-06T16:01:43.742Z,400
2023-03-06T16:03:43.924Z,400
2023-03-06T16:04:43.677Z,564
2023-03-06T16:05:43.785Z,564
2023-03-06T16:06:43.761Z,564
2023-03-06T16:08:43.957Z,564
2023-03-06T16:09:43.692Z,537
2023-03-06T16:10:43.673Z,537
2023-03-06T16:11:44.182Z,537
2023-03-06T16:13:43.926Z,537
2023-03-06T16:14:43.787Z,487
2023-03-06T16:15:43.762Z,487
2023-03-06T16:16:43.670Z,487
2023-03-06T16:18:43.932Z,487
2023-03-06T16:19:43.762Z,597
2023-03-06T16:20:43.770Z,597
2023-03-06T16:21:43.805Z,597
2023-03-06T16:23:43.928Z,597
2023-03-06T16:24:43.666Z,537
2023-03-06T16:25:43.764Z,537
2023-03-06T16:26:43.764Z,537
2023-03-06T16:28:43.928Z,537
2023-03-06T16:29:43.667Z,626
2023-03-06T16:30:43.816Z,626
2023-03-06T16:31:43.677Z,626
2023-03-06T16:33:43.965Z,626
2023-03-06T16:34:43.677Z,626
2023-03-06T16:35:43.797Z,626
2023-03-06T16:36:43.686Z,626
2023-03-06T16:38:43.935Z,626
2023-03-06T16:39:43.669Z,626
2023-03-06T16:40:43.644Z,626
2023-03-06T16:41:43.668Z,626
2023-03-06T16:43:43.946Z,626
2023-03-06T16:44:43.680Z,612
2023-03-06T16:45:43.748Z,612
2023-03-06T16:46:43.677Z,612
2023-03-06T16:48:43.939Z,612
2023-03-06T16:49:43.707Z,650